LFJL/ETZ METAR and TAF weather

Enter ICAO airport designator
Station Type Date Time Source
LFJL METAR 2022/06/26 07:00 UTC NOAA

LFJL 260700Z AUTO 27007KT 9999 BKN009/// BKN013/// OVC110/// ///TCU 17/15 Q1016 TEMPO 4000 RA


Station Type Date Time Source
LFJL Decoded METAR 2022/06/26 07:00 UTC NOAA

Metz-Nancy-Lorraine, France (LFJL) 48-59N 006-15E
Jun 26, 2022 - 03:00 AM EDT / 2022.06.26 0700 UTC
Wind: from the W (270 degrees) at 8 MPH (7 KT):0
Visibility: greater than 7 mile(s):0
Sky conditions: overcast
Weather: Towering cumulus clouds observed
Temperature: 62 F (17 C)
Dew Point: 59 F (15 C)
Relative Humidity: 88%
Pressure (altimeter): 30.00 in. Hg (1016 hPa)
ob: LFJL 260700Z AUTO 27007KT 9999 BKN009/// BKN013/// OVC110/// ///TCU 17/15 Q1016 TEMPO 4000 RA
cycle: 7

Station Type Date Time Source
LFJL TAF 2022/06/26 06:21 UTC NOAA

TAF LFJL 260500Z 2606/2706 34006KT 9999 SCT020 BKN120
TEMPO 2606/2608 RA BKN012 FEW030TCU
TEMPO 2608/2612 SHRA FEW025CB PROB40
TEMPO 2612/2620 -SHRA FEW040CB
TEMPO 2620/2624 VRB10G20KT 4000 SHRA FEW050CB PROB40
TEMPO 2620/2624 TSRA
TEMPO 2700/2706 4000 RA BR BKN005

Example: see airport list